• Join FlightAware (Why Join?)
  • Login
  • US Flag 
02:47PM EDT


 

Airport Tracker/Info


-or-


 

Live Flight TrackerFlight Track Log ✈ JBU808 ✈ 22-Mar-2014 ✈ TJSJ / SJU - KBOS

Flight Track Log - Related Links

Times and Time Zones

All times are in EDT time to prevent confusion due to time zone crossing. See the JBU808 flight status page for this flight to view local times or setup timezone preferences in your user account.

Time Position Orientation Groundspeed Altitude Reporting Facility
EDT Latitude Longitude Course Direction KTS MPH feet Rate Location/Type
03:09PM 18.4500 -65.9667 North 180 207 1,500  Level San Juan Center
03:10PM 18.5167 -65.9500 13° North 250 288 2,800 2,220 Climbing San Juan Center
03:11PM 18.6000 -65.9500 360° North 280 322 6,000 2,940 Climbing San Juan Center
03:12PM 18.8890 -65.9667 North  Level FlightAware Approximate
03:12PM 18.6833 -65.9500 360° North 290 334 8,800  Level San Juan Center
03:13PM 19.0036 -65.9667 North  Level FlightAware Approximate
03:13PM 18.7667 -65.9667 349° North 310 357 10,800  Level San Juan Center
03:14PM 19.1182 -65.9667 North  Level FlightAware Approximate
03:14PM 18.8667 -65.9667 360° North 360 414 12,100  Level San Juan Center
03:15PM 18.9667 -65.9667 360° North 380 437 14,100 2,040 Climbing San Juan Center
03:16PM 19.0833 -65.9667 360° North 380 437 16,300 1,740 Climbing San Juan Center
03:17PM 19.1833 -65.9667 360° North 390 449 17,700 1,500 Climbing San Juan Center
03:18PM 19.3000 -65.9667 360° North 400 460 19,400 1,380 Climbing San Juan Center
03:19PM 19.4167 -65.9667 360° North 420 483 20,600 1,260 Climbing San Juan Center
03:20PM 19.5333 -65.9833 352° North 440 506 22,000 1,380 Climbing San Juan Center
03:21PM 19.6500 -65.9833 360° North 430 495 23,500 1,200 Climbing San Juan Center
03:22PM 19.7667 -65.9833 360° North 430 495 24,500 1,020 Climbing San Juan Center
03:23PM 19.9000 -65.9833 360° North 440 506 25,600 1,080 Climbing San Juan Center
03:24PM 20.0167 -65.9833 360° North 450 518 26,700 1,020 Climbing San Juan Center
03:25PM 20.1500 -65.9833 360° North 440 506 27,700 900 Climbing San Juan Center
03:26PM 20.2667 -65.9833 360° North 460 529 28,500 720 Climbing San Juan Center
03:27PM 20.4000 -65.9667 North 470 541 29,200 900 Climbing San Juan Center
03:28PM 20.5333 -65.9500 North 460 529 30,400 1,140 Climbing San Juan Center
03:29PM 20.6667 -65.9500 360° North 460 529 31,500 1,140 Climbing San Juan Center
03:30PM 20.7833 -65.9333 North 450 518 32,700 960 Climbing San Juan Center
03:31PM 20.9167 -65.9167 North 450 518 33,500 600 Climbing San Juan Center
03:32PM 21.0500 -65.9167 360° North 450 518 34,000 240 Climbing San Juan Center
03:33PM 21.1667 -65.9000 North 470 541 34,000  Level San Juan Center
03:34PM 21.3000 -65.8833 North 450 518 34,000 -60 Level San Juan Center
03:35PM 21.4167 -65.8667 North 450 518 33,900  Descending San Juan Center
03:36PM 21.5500 -65.8500 North 480 552 34,000  Climbing San Juan Center
03:37PM 21.6667 -65.8333 North 440 506 34,000 -60 Level San Juan Center
03:38PM 21.7833 -65.8167 North 450 518 33,900 -60 Descending San Juan Center
03:39PM 21.9167 -65.8000 North 460 529 33,900  Level San Juan Center
03:40PM 22.0333 -65.7667 15° North 470 541 34,000  Climbing San Juan Center
03:41PM 22.0667 -65.8000 10° North 436 502 34,000 60 Level New York Oceanic (ODAPS)
03:54PM 23.5000 -65.5333 351° North 434 499 35,000  Climbing New York Oceanic (ODAPS)
04:05PM 24.9333 -65.7833 North 448 516 35,000  Level New York Oceanic (ODAPS)
04:40PM 29.3525 -65.4033 349° North 448 516 35,000  Level New York Center
04:41PM 29.5327 -65.4418 349° North 448 516 35,000 -120 Level FlightAware Transoceanic
04:41PM 29.4617 -65.4256 350° North 423 487 34,900  Descending New York Center
04:42PM 29.6488 -65.4670 349° North 448 516 35,000 60 Climbing FlightAware Transoceanic
04:42PM 29.5872 -65.4492 351° North 423 487 35,000  Level New York Center
04:43PM 29.7649 -65.4922 349° North 448 516 35,000  Level FlightAware Transoceanic
04:43PM 29.7028 -65.4781 348° North 425 489 35,000  Level New York Center
04:44PM 29.8810 -65.5175 349° North 448 516 35,000  Level FlightAware Transoceanic
04:44PM 29.8078 -65.5006 349° North 425 489 35,000  Level New York Center
04:45PM 29.9381 -65.5289 349° North 427 491 35,000  Level New York Center
04:46PM 30.0556 -65.5556 349° North 427 491 35,000  Level New York Center
04:47PM 30.1606 -65.5781 350° North 430 495 35,000  Level New York Center
04:48PM 30.2908 -65.6067 349° North 435 501 35,000  Level New York Center
04:49PM 30.4000 -65.6314 349° North 429 494 35,000  Level New York Center
04:50PM 30.5303 -65.6578 350° North 430 495 35,000  Level New York Center
04:51PM 30.6522 -65.6892 348° North 432 497 35,000  Level New York Center
04:52PM 30.7594 -65.7144 349° North 432 497 35,000  Level New York Center
04:53PM 30.8919 -65.7431 350° North 439 505 35,000  Level New York Center
04:54PM 31.0136 -65.7700 349° North 433 498 35,000  Level New York Center
04:55PM 31.1208 -65.7953 349° North 433 498 35,000  Level New York Center
04:56PM 31.2511 -65.8219 350° North 433 498 35,000  Level New York Center
04:57PM 31.3583 -65.8475 348° North 433 498 35,000  Level New York Center
04:58PM 31.4908 -65.8789 349° North 433 498 35,000  Level New York Center
04:59PM 31.6086 -65.9064 349° North 433 498 35,000  Level New York Center
05:00PM 31.7200 -65.9319 349° North 433 498 35,000  Level New York Center
05:01PM 31.8503 -65.9611 349° North 433 498 35,000  Level New York Center
05:02PM 31.9681 -65.9864 350° North 433 498 35,000  Level New York Center
05:03PM 32.0753 -66.0097 350° North 433 498 35,000  Level New York Center
05:04PM 32.2056 -66.0419 348° North 433 498 35,000  Level New York Center
05:05PM 32.3128 -66.0653 350° North 433 498 35,000  Level New York Center
05:06PM 32.4431 -66.0953 349° North 433 498 35,000  Level New York Center
05:07PM 32.5631 -66.1231 349° North 433 498 35,000  Level New York Center
05:09PM 32.8028 -66.1789 349° North 438 504 35,000  Level New York Center
05:10PM 32.9183 -66.2050 349° North 433 498 35,000  Level New York Center
05:11PM 33.0256 -66.2289 349° North 432 497 35,000  Level New York Center
05:12PM 33.1581 -66.2564 350° North 438 504 35,000  Level New York Center
05:13PM 33.2719 -66.2875 347° North 427 491 35,000  Level New York Center
05:14PM 33.3958 -66.3108 351° North 432 497 35,000  Level New York Center
05:15PM 33.5094 -66.3394 348° North 427 491 35,000  Level New York Center
05:16PM 33.6186 -66.3611 351° North 435 501 35,000  Level New York Center
05:17PM 33.7469 -66.3917 349° North 435 501 35,000  Level New York Center
05:18PM 33.8669 -66.4206 349° North 430 495 35,000  Level New York Center
05:19PM 33.9681 -66.4475 348° North 416 479 35,000  Level New York Center
05:20PM 34.0964 -66.4786 349° North 416 479 35,000  Level New York Center
05:21PM 34.2139 -66.5025 350° North 429 494 35,000  Level New York Center
05:22PM 34.3297 -66.5342 347° North 429 494 35,000  Level New York Center
05:23PM 34.4531 -66.5431 357° North 434 499 35,000  Level New York Center
05:24PM 34.5603 -66.5625 352° North 443 510 35,000  Level New York Center
05:25PM 34.6847 -66.6017 345° North 428 493 35,000  Level New York Center
05:26PM 34.8064 -66.6233 352° North 423 487 35,000  Level New York Center
05:59PM 38.6786 -67.5092 346° North 447 514 36,000  Climbing New York Center
06:00PM 38.5929 -67.7482 346° North  Level FlightAware Approximate
06:00PM 38.7942 -67.5414 348° North 439 505 36,000  Level New York Center
06:01PM 38.7058 -67.7834 347° North  Level FlightAware Approximate
06:01PM 38.9036 -67.5819 344° North 422 486 36,000  Level New York Center
06:02PM 38.8189 -67.8174 346° North  Level FlightAware Approximate
06:02PM 39.0036 -67.6497 332° Northwest 403 464 35,900  Level New York Center
06:03PM 39.1011 -67.7150 333° Northwest 397 457 36,000  Climbing New York Center
06:04PM 39.1986 -67.7833 331° Northwest 397 457 36,000 -60 Level New York Center
06:05PM 39.2983 -67.8517 332° Northwest 402 463 35,900  Descending New York Center
06:06PM 39.3981 -67.9203 332° Northwest 407 468 36,000  Climbing New York Center
06:07PM 39.4994 -67.9836 334° Northwest 407 468 36,000  Level New York Center
06:08PM 39.6011 -68.0525 332° Northwest 407 468 36,000  Level New York Center
06:09PM 39.6986 -68.1217 331° Northwest 407 468 36,000  Level New York Center
06:10PM 39.7981 -68.1936 331° Northwest 407 468 36,000  Level New York Center
06:11PM 39.8994 -68.2575 334° Northwest 407 468 36,000  Level New York Center
06:12PM 39.9989 -68.3272 332° Northwest 407 468 36,000  Level New York Center
06:13PM 40.0983 -68.4000 331° Northwest 402 463 36,000  Level New York Center
06:14PM 40.1997 -68.4728 331° Northwest 402 463 36,000  Level New York Center
06:15PM 40.3011 -68.5431 332° Northwest 402 463 36,000  Level New York Center
06:16PM 40.4044 -68.6161 332° Northwest 412 474 36,000  Level New York Center
06:17PM 40.4828 -68.6650 335° Northwest 418 481 36,000  Level Boston Center
06:18PM 40.6019 -68.7517 331° Northwest 413 475 36,000 -60 Level Boston Center
06:19PM 40.7022 -68.8242 331° Northwest 410 472 35,900  Descending Boston Center
06:20PM 40.8053 -68.8944 333° Northwest 412 474 36,000  Climbing Boston Center
06:21PM 40.9064 -68.9683 331° Northwest 413 475 36,000  Level Boston Center
06:22PM 41.0072 -69.0428 331° Northwest 413 475 36,000  Level Boston Center
06:23PM 41.1094 -69.1156 332° Northwest 414 476 36,000  Level Boston Center
06:24PM 41.2117 -69.1897 331° Northwest 414 476 36,000  Level Boston Center
06:25PM 41.3108 -69.2642 331° Northwest 414 476 36,000  Level Boston Center
06:26PM 41.4117 -69.3364 332° Northwest 414 476 36,000 -540 Level Boston Center
06:27PM 41.5242 -69.4197 331° Northwest 413 475 35,000 -960 Descending Boston Center
06:28PM 41.6206 -69.4903 331° Northwest 402 463 34,100 -1,320 Descending Boston Center
06:29PM 41.7175 -69.5631 331° Northwest 398 458 32,300 -1,980 Descending Boston Center
06:30PM 41.8128 -69.6325 331° Northwest 398 458 30,100 -2,160 Descending Boston Center
06:31PM 41.9047 -69.7022 331° Northwest 387 445 28,000 -2,160 Descending Boston Center
06:32PM 42.0000 -69.7742 331° Northwest 376 433 25,800 -2,160 Descending Boston Center
06:33PM 42.0878 -69.8397 331° Northwest 366 421 23,600 -2,100 Descending Boston Center
06:34PM 42.1742 -69.9039 331° Northwest 360 414 21,500 -2,100 Descending Boston Center
06:35PM 42.2578 -69.9675 331° Northwest 351 404 19,400 -2,040 Descending Boston Center
06:36PM 42.3336 -70.0250 331° Northwest 341 392 17,500 -2,100 Descending Boston Center
06:37PM 42.4228 -70.0928 331° Northwest 316 364 15,200 -2,040 Descending Boston Center
06:38PM 42.4919 -70.1472 330° Northwest 296 341 13,400 -1,680 Descending Boston Center
06:39PM 42.5506 -70.2039 325° Northwest 267 307 11,900 -1,200 Descending Boston Center
06:40PM 42.5958 -70.2547 320° Northwest 221 254 11,000 -1,140 Descending Boston Center
06:41PM 42.6069 -70.3131 285° West 162 186 9,600 -1,560 Descending Boston Center
06:42PM 42.6158 -70.3708 282° West 158 182 7,900 -1,800 Descending Boston Center
06:43PM 42.6183 -70.4308 273° West 158 182 6,000 -1,020 Descending Boston Center
06:44PM 42.6053 -70.4944 254° West 163 188 5,900 -180 Descending Boston Center
06:45PM 42.5567 -70.4822 170° South 220 253 5,700 -540 Descending Boston Center
06:46PM 42.5028 -70.4333 146° Southeast 233 268 4,900 -840 Descending Boston Center
06:47PM 42.4525 -70.4650 205° Southwest 189 217 4,000 -540 Descending Boston Center
06:48PM 42.4406 -70.5256 255° West 175 201 3,900 -60 Descending Boston Center
06:49PM 42.4306 -70.5875 258° West 171 197 3,900  Level Boston Center
06:50PM 42.4200 -70.6494 257° West 171 197 4,000  Climbing Boston Center
06:51PM 42.4089 -70.7086 256° West 168 193 3,900 -360 Descending Boston Center
06:52PM 42.3994 -70.7672 258° West 163 188 3,300 -720 Descending Boston Center
06:53PM 42.3906 -70.8178 257° West 149 171 2,500 -900 Descending Boston Center
06:54PM 42.3808 -70.8739 257° West 145 167 1,600 -720 Descending Boston Center
06:55PM 42.3667 -70.9333 252° West 121 139 1,000 -600 Descending KA90
06:56PM 42.3667 -70.9667 270° West 120 138 300 -720 Descending KA90
06:59PM 42.3500 -71.0000 North  Level FlightAware Approximate